createdAt,value
2018-12-11T00:00:09.276Z,2.30
2018-12-11T00:05:12.756Z,2.20
2018-12-11T00:10:16.443Z,2.10
2018-12-11T00:15:20.556Z,2.00
2018-12-11T00:20:24.402Z,2.00
2018-12-11T00:25:29.332Z,1.90
2018-12-11T00:30:34.041Z,1.90
2018-12-11T00:35:37.626Z,1.60
2018-12-11T00:40:41.703Z,1.40
2018-12-11T00:45:46.112Z,1.20
2018-12-11T00:50:51.217Z,1.10
2018-12-11T00:55:54.796Z,1.10
2018-12-11T01:00:59.382Z,1.00
2018-12-11T01:06:05.291Z,1.00
2018-12-11T01:11:09.756Z,1.00
2018-12-11T01:16:13.305Z,0.80
2018-12-11T01:21:18.252Z,0.60
2018-12-11T01:26:23.035Z,0.50
2018-12-11T01:31:27.546Z,0.30
2018-12-11T01:36:32.370Z,0.30
2018-12-11T01:41:37.100Z,0.10
2018-12-11T01:46:43.053Z,0.10
2018-12-11T01:51:48.218Z,0.10
2018-12-11T01:56:51.748Z,0.20
2018-12-11T02:01:56.464Z,0.20
2018-12-11T02:07:05.235Z,0.40
2018-12-11T02:12:09.056Z,0.50
2018-12-11T02:17:13.839Z,0.50
2018-12-11T02:22:18.683Z,0.30
2018-12-11T02:27:23.458Z,0.10
2018-12-11T02:32:28.192Z,0.00
2018-12-11T02:37:33.084Z,-0.10
2018-12-11T02:42:38.226Z,-0.30
2018-12-11T02:47:43.115Z,-0.40
2018-12-11T02:52:48.232Z,-0.50
2018-12-11T02:57:53.072Z,-0.30
2018-12-11T03:02:57.671Z,-0.10
2018-12-11T03:08:01.820Z,0.20
2018-12-11T03:13:06.364Z,0.10
2018-12-11T03:18:10.998Z,0.20
2018-12-11T03:23:14.601Z,0.10
2018-12-11T03:28:20.329Z,-0.10
2018-12-11T03:33:25.279Z,-0.40
2018-12-11T03:38:30.261Z,-0.60
2018-12-11T03:43:34.895Z,-0.60
2018-12-11T03:48:39.580Z,-0.30
2018-12-11T03:53:44.583Z,0.20
2018-12-11T03:58:49.266Z,0.40
2018-12-11T04:03:54.416Z,0.30
2018-12-11T04:08:59.146Z,-0.10
2018-12-11T04:14:02.867Z,-0.10
2018-12-11T04:19:07.251Z,-0.20
2018-12-11T04:24:12.116Z,-0.10
2018-12-11T04:29:15.810Z,0.00
2018-12-11T04:34:20.671Z,0.00
2018-12-11T04:39:25.857Z,0.10
2018-12-11T04:44:30.959Z,0.30
2018-12-11T04:49:34.676Z,0.50
2018-12-11T04:54:39.976Z,0.60
2018-12-11T04:59:43.468Z,0.60
2018-12-11T05:04:48.244Z,0.70
2018-12-11T05:09:52.975Z,0.70
2018-12-11T05:14:56.560Z,0.60
2018-12-11T05:20:01.295Z,0.80
2018-12-11T05:25:06.366Z,0.80
2018-12-11T05:30:12.433Z,0.70
2018-12-11T05:35:16.910Z,0.80
2018-12-11T05:40:20.580Z,0.90
2018-12-11T05:45:25.284Z,1.00
2018-12-11T05:50:29.963Z,1.20
2018-12-11T05:55:34.569Z,1.30
2018-12-11T06:00:38.261Z,1.40
2018-12-11T06:05:42.924Z,1.50
2018-12-11T06:10:46.520Z,1.60
2018-12-11T06:15:51.027Z,1.60
2018-12-11T06:20:55.800Z,1.60
2018-12-11T06:26:00.294Z,1.70
2018-12-11T06:31:05.200Z,1.70
2018-12-11T06:36:09.691Z,1.70
2018-12-11T06:41:13.581Z,1.80
2018-12-11T06:46:18.572Z,1.80
2018-12-11T06:51:22.173Z,1.90
2018-12-11T06:56:25.797Z,1.90
2018-12-11T07:01:31.032Z,2.10
2018-12-11T07:06:34.541Z,2.10
2018-12-11T07:11:38.410Z,2.10
2018-12-11T07:16:42.249Z,2.20
2018-12-11T07:21:45.769Z,2.20
2018-12-11T07:26:49.487Z,2.20
2018-12-11T07:31:52.972Z,2.20
2018-12-11T07:36:56.642Z,2.20
2018-12-11T07:42:01.255Z,2.20
2018-12-11T07:47:06.812Z,2.20
2018-12-11T07:52:10.357Z,2.20
2018-12-11T07:57:13.963Z,2.30
2018-12-11T08:02:17.525Z,2.40
2018-12-11T08:07:22.365Z,2.50
2018-12-11T08:12:27.205Z,2.50
2018-12-11T08:17:31.916Z,2.50
2018-12-11T08:22:36.521Z,2.60
2018-12-11T08:27:41.205Z,2.60
2018-12-11T08:32:44.833Z,2.60
2018-12-11T08:37:49.739Z,2.70
2018-12-11T08:42:54.539Z,2.80
2018-12-11T08:47:59.236Z,2.70
2018-12-11T08:53:02.954Z,2.80
2018-12-11T08:58:07.066Z,2.90
2018-12-11T09:03:10.969Z,3.00
2018-12-11T09:08:14.656Z,3.10
2018-12-11T09:13:19.050Z,3.20
2018-12-11T09:18:23.387Z,3.30
2018-12-11T09:23:27.919Z,3.40
2018-12-11T09:28:31.635Z,3.50
2018-12-11T09:33:36.380Z,3.60
2018-12-11T09:38:41.037Z,3.60
2018-12-11T09:43:45.446Z,3.80
2018-12-11T09:48:49.492Z,3.90
2018-12-11T09:53:54.191Z,4.00
2018-12-11T09:58:58.486Z,4.30
2018-12-11T10:04:03.485Z,4.30
2018-12-11T10:09:08.093Z,4.30
2018-12-11T10:14:12.465Z,4.30
2018-12-11T10:19:17.382Z,4.40
2018-12-11T10:24:24.064Z,4.60
2018-12-11T10:29:28.643Z,4.50
2018-12-11T10:34:33.160Z,4.50
2018-12-11T10:39:37.707Z,4.60
2018-12-11T10:44:42.858Z,4.70
2018-12-11T10:49:47.489Z,4.70
2018-12-11T10:54:56.719Z,4.50
2018-12-11T11:00:01.663Z,4.60
2018-12-11T11:05:06.723Z,4.70
2018-12-11T11:10:10.227Z,4.60
2018-12-11T11:15:13.712Z,4.70
2018-12-11T11:20:19.330Z,4.80
2018-12-11T11:25:23.161Z,4.90
2018-12-11T11:30:26.739Z,5.00
2018-12-11T11:35:31.628Z,5.10
2018-12-11T11:40:36.725Z,5.00
2018-12-11T11:45:40.424Z,4.90
2018-12-11T11:50:45.265Z,4.90
2018-12-11T11:55:48.780Z,4.60
2018-12-11T12:00:53.923Z,4.50
2018-12-11T12:05:58.721Z,4.70
2018-12-11T12:11:03.545Z,4.70
2018-12-11T12:16:08.104Z,4.50
2018-12-11T12:21:12.501Z,4.40
2018-12-11T12:26:16.896Z,4.30
2018-12-11T12:31:21.166Z,4.70
2018-12-11T12:36:25.726Z,7.20
2018-12-11T12:41:30.987Z,9.00
2018-12-11T12:46:35.493Z,7.60
2018-12-11T12:51:39.809Z,7.30
2018-12-11T12:56:44.151Z,9.20
2018-12-11T13:01:48.791Z,10.30
2018-12-11T13:06:53.541Z,8.90
2018-12-11T13:11:58.447Z,7.30
2018-12-11T13:17:02.054Z,5.90
2018-12-11T13:22:06.560Z,5.20
2018-12-11T13:27:10.246Z,4.70
2018-12-11T13:32:14.812Z,4.60
2018-12-11T13:37:19.770Z,4.50
2018-12-11T13:42:24.779Z,4.50
2018-12-11T13:47:29.930Z,4.50
2018-12-11T13:52:33.577Z,4.40
2018-12-11T13:57:38.287Z,4.60
2018-12-11T14:02:42.895Z,4.60
2018-12-11T14:07:48.571Z,4.60
2018-12-11T14:12:53.604Z,4.60
2018-12-11T14:17:58.385Z,4.60
2018-12-11T14:23:01.900Z,4.40
2018-12-11T14:28:07.158Z,4.30
2018-12-11T14:33:27.880Z,4.20
2018-12-11T14:38:37.547Z,4.30
2018-12-11T14:43:42.706Z,4.40
2018-12-11T14:48:46.779Z,4.10
2018-12-11T14:53:50.285Z,3.90
2018-12-11T14:58:53.972Z,3.70
2018-12-11T15:03:58.673Z,3.50
2018-12-11T15:09:10.717Z,3.40
2018-12-11T15:14:14.287Z,3.20
2018-12-11T15:19:19.116Z,3.20
2018-12-11T15:24:24.008Z,3.10
2018-12-11T15:29:27.587Z,2.90
2018-12-11T15:34:32.322Z,2.80
2018-12-11T15:39:37.407Z,2.80
2018-12-11T15:44:42.159Z,2.80
2018-12-11T15:49:46.511Z,2.90
2018-12-11T15:54:50.332Z,2.90
2018-12-11T15:59:55.071Z,2.70
2018-12-11T16:05:03.797Z,2.60
2018-12-11T16:10:07.647Z,2.40
2018-12-11T16:15:11.231Z,2.20
2018-12-11T16:20:26.652Z,2.00
2018-12-11T16:25:33.581Z,1.90
2018-12-11T16:30:37.588Z,1.80
2018-12-11T16:35:44.170Z,1.50
2018-12-11T16:40:49.415Z,1.30
2018-12-11T16:45:53.623Z,1.20
2018-12-11T16:50:57.467Z,1.20
2018-12-11T16:56:02.175Z,1.40
2018-12-11T17:01:06.738Z,1.60
2018-12-11T17:06:10.157Z,1.60
2018-12-11T17:11:14.161Z,1.70
2018-12-11T17:16:17.723Z,1.60
2018-12-11T17:21:22.693Z,1.50
2018-12-11T17:26:27.391Z,1.50
2018-12-11T17:31:32.127Z,1.50
2018-12-11T17:36:37.076Z,1.40
2018-12-11T17:41:50.717Z,1.30
2018-12-11T17:46:55.037Z,1.20
2018-12-11T17:51:58.746Z,1.30
2018-12-11T17:57:02.260Z,1.20
2018-12-11T18:02:07.838Z,1.20
2018-12-11T18:07:11.569Z,1.20
2018-12-11T18:12:15.081Z,1.10
2018-12-11T18:17:19.574Z,1.10
2018-12-11T18:22:23.174Z,1.00
2018-12-11T18:27:26.895Z,1.00
2018-12-11T18:32:30.711Z,0.90
2018-12-11T18:37:34.388Z,0.70
2018-12-11T18:42:44.988Z,0.60
2018-12-11T18:47:50.140Z,0.50
2018-12-11T18:52:54.857Z,0.20
2018-12-11T18:57:59.534Z,0.10
2018-12-11T19:03:03.900Z,0.00
2018-12-11T19:08:08.465Z,-0.10
2018-12-11T19:13:12.060Z,-0.10
2018-12-11T19:18:16.840Z,-0.10
2018-12-11T19:23:24.291Z,0.10
2018-12-11T19:28:27.808Z,0.00
2018-12-11T19:33:31.409Z,-0.20
2018-12-11T19:38:38.992Z,-0.50
2018-12-11T19:43:42.815Z,-0.50
2018-12-11T19:48:57.323Z,-0.60
2018-12-11T19:54:01.543Z,-0.60
2018-12-11T19:59:08.525Z,-0.60
2018-12-11T20:04:13.353Z,-0.70
2018-12-11T20:09:17.663Z,-0.70
2018-12-11T20:14:23.379Z,-0.80
2018-12-11T20:19:28.442Z,-1.10
2018-12-11T20:24:32.392Z,-1.10
2018-12-11T20:29:37.720Z,-1.00
2018-12-11T20:34:42.397Z,-0.80
2018-12-11T20:39:48.227Z,-0.90
2018-12-11T20:44:52.978Z,-1.00
2018-12-11T20:49:57.765Z,-1.00
2018-12-11T20:55:02.365Z,-1.10
2018-12-11T21:00:08.973Z,-1.30
2018-12-11T21:05:12.451Z,-1.40
2018-12-11T21:10:15.940Z,-1.30
2018-12-11T21:15:19.552Z,-1.30
2018-12-11T21:20:23.996Z,-1.30
2018-12-11T21:25:29.009Z,-1.50
2018-12-11T21:30:33.127Z,-1.50
2018-12-11T21:35:40.441Z,-1.50
2018-12-11T21:40:44.019Z,-1.50
2018-12-11T21:45:48.376Z,-1.60
2018-12-11T21:50:54.216Z,-1.70
2018-12-11T21:55:59.693Z,-1.70
2018-12-11T22:01:04.548Z,-1.80
2018-12-11T22:06:09.499Z,-1.80
2018-12-11T22:11:13.505Z,-1.70
2018-12-11T22:16:17.938Z,-1.60
2018-12-11T22:21:22.114Z,-1.60
2018-12-11T22:26:26.904Z,-1.70
2018-12-11T22:31:31.918Z,-1.70
2018-12-11T22:36:36.647Z,-1.80
2018-12-11T22:41:41.368Z,-1.70
2018-12-11T22:46:45.213Z,-1.90
2018-12-11T22:51:50.335Z,-2.00
2018-12-11T22:56:59.834Z,-1.90
2018-12-11T23:02:04.235Z,-1.90
2018-12-11T23:07:09.449Z,-2.00
2018-12-11T23:12:13.312Z,-2.00
2018-12-11T23:17:18.645Z,-2.00
2018-12-11T23:22:23.966Z,-2.00
2018-12-11T23:27:27.708Z,-2.00
2018-12-11T23:32:32.260Z,-2.00
2018-12-11T23:37:36.380Z,-2.00
2018-12-11T23:42:39.997Z,-2.10
2018-12-11T23:47:45.683Z,-2.00
2018-12-11T23:52:50.841Z,-2.10
2018-12-11T23:57:55.386Z,-2.10
